PWSweather.com
Personal Weather Stations
Station Observations
KMILAPEE3
Lapeer Michigan, Lapeer, MI 48446

Lapeer MichiganLapeer, MI 48446

Lat: 43.057, Lon: -83.362

Elevation: 897

Station Type: Oregon Scientific WMR-968

Latest ConditionsUpdated 9:30:17 PM EDT Monday, May 25, 2015
Currently Today's Max Today's Min Today's Average
Temperature 68.7°F20.4°C 79.5°F26.4°C 65.7°F18.7°C 71.0°F21.7°C
Dew Point 63.1°F17.3°C 64.7°F18.2°C 40.2°F4.6°C 49.9°F9.9°C
Winds 3.7 mph WSW6.0 kmh WSW 15.7 mph SW25.3 kmh SW - 6.3 mph 10.1 kmh
Wind Gusts 10.4 mph16.7 kmh 35.3 mph56.8 kmh - -
Humidity 82% 82% 36% 49%
Pressure 28.97 in981.0 mb 29.09 in985.1 mb 28.91 in979.0 mb -
Precipitation - 0.36 in9.1 mm - -
Hour Temp Dew Point Humidity Winds Wind Gusts Pressure Precip Precip Rate Daily Precip Total
09:30 PM 68.7°F20.4°C 63.1°F17.3°C 82% 3.7 mph WSW6.0 kmh WSW 10.4 mph16.7 kmh 28.97 in981.0 mb 0.00 in0.0 mm 0.00 in0.0 mm 0.36 in9.1 mm
09:25 PM 68.7°F20.4°C 63.1°F17.3°C 82% 4.3 mph SW6.9 kmh SW 11.0 mph17.7 kmh 28.97 in981.0 mb 0.00 in0.0 mm 0.00 in0.0 mm 0.36 in9.1 mm
09:20 PM 68.7°F20.4°C 63.1°F17.3°C 82% 4.8 mph WSW7.7 kmh WSW 12.6 mph20.3 kmh 28.97 in981.0 mb 0.00 in0.0 mm 0.00 in0.0 mm 0.36 in9.1 mm
09:15 PM 68.7°F20.4°C 62.7°F17.1°C 81% 4.4 mph SW7.1 kmh SW 12.6 mph20.3 kmh 28.97 in981.0 mb 0.00 in0.0 mm 0.00 in0.0 mm 0.36 in9.1 mm
09:10 PM 68.9°F20.5°C 62.9°F17.2°C 81% 4.7 mph SW7.6 kmh SW 9.7 mph15.6 kmh 28.97 in981.0 mb 0.00 in0.0 mm 0.00 in0.0 mm 0.36 in9.1 mm
09:04 PM 68.9°F20.5°C 62.9°F17.2°C 81% 3.4 mph WSW5.5 kmh WSW 12.6 mph20.3 kmh 28.97 in981.0 mb 0.00 in0.0 mm 0.00 in0.0 mm 0.36 in9.1 mm
08:59 PM 68.9°F20.5°C 62.9°F17.2°C 81% 4.6 mph SW7.4 kmh SW 12.6 mph20.3 kmh 28.97 in981.0 mb 0.00 in0.0 mm 0.00 in0.0 mm 0.36 in9.1 mm
08:53 PM 69.1°F20.6°C 63.1°F17.3°C 81% 4.8 mph W7.7 kmh W 9.1 mph14.6 kmh 28.97 in981.0 mb 0.00 in0.0 mm 0.00 in0.0 mm 0.36 in9.1 mm
08:48 PM 69.1°F20.6°C 63.1°F17.3°C 81% 3.8 mph WSW6.1 kmh WSW 9.1 mph14.6 kmh 28.97 in981.0 mb 0.00 in0.0 mm 0.00 in0.0 mm 0.36 in9.1 mm
08:43 PM 69.3°F20.7°C 63.3°F17.4°C 81% 4.9 mph SW7.9 kmh SW 9.1 mph14.6 kmh 28.97 in981.0 mb 0.00 in0.0 mm 0.00 in0.0 mm 0.36 in9.1 mm
08:38 PM 69.3°F20.7°C 63.3°F17.4°C 81% 4.3 mph SW6.9 kmh SW 8.4 mph13.5 kmh 28.97 in981.0 mb 0.00 in0.0 mm 0.00 in0.0 mm 0.36 in9.1 mm
08:32 PM 69.4°F20.8°C 63.4°F17.4°C 81% 3.8 mph W6.1 kmh W 8.4 mph13.5 kmh 28.97 in981.0 mb 0.00 in0.0 mm 0.00 in0.0 mm 0.36 in9.1 mm
08:27 PM 69.4°F20.8°C 63.3°F17.4°C 81% 4.9 mph SW7.9 kmh SW 11.7 mph18.8 kmh 28.97 in981.0 mb 0.00 in0.0 mm 0.00 in0.0 mm 0.36 in9.1 mm
08:21 PM 69.4°F20.8°C 63.3°F17.4°C 81% 4.5 mph WSW7.2 kmh WSW 11.7 mph18.8 kmh 28.97 in981.0 mb 0.00 in0.0 mm 0.00 in0.0 mm 0.36 in9.1 mm
08:17 PM 69.4°F20.8°C 63.3°F17.4°C 81% 4.8 mph W7.7 kmh W 11.7 mph18.8 kmh 28.97 in981.0 mb 0.00 in0.0 mm 0.00 in0.0 mm 0.36 in9.1 mm
08:11 PM 69.4°F20.8°C 63.3°F17.4°C 81% 4.9 mph SW7.9 kmh SW 14.6 mph23.5 kmh 28.97 in981.0 mb 0.00 in0.0 mm 0.00 in0.0 mm 0.36 in9.1 mm
08:06 PM 69.4°F20.8°C 63.3°F17.4°C 81% 6.7 mph SW10.8 kmh SW 14.6 mph23.5 kmh 28.97 in981.0 mb 0.00 in0.0 mm 0.00 in0.0 mm 0.36 in9.1 mm
08:01 PM 69.4°F20.8°C 62.9°F17.2°C 80% 5.5 mph WSW8.9 kmh WSW 14.6 mph23.5 kmh 28.97 in981.0 mb 0.00 in0.0 mm 0.00 in0.0 mm 0.36 in9.1 mm
07:56 PM 69.3°F20.7°C 63.2°F17.3°C 81% 4.0 mph WSW6.4 kmh WSW 11.0 mph17.7 kmh 28.97 in981.0 mb 0.00 in0.0 mm 0.00 in0.0 mm 0.36 in9.1 mm
07:50 PM 69.3°F20.7°C 63.2°F17.3°C 81% 4.3 mph WSW6.9 kmh WSW 13.9 mph22.4 kmh 28.97 in981.0 mb 0.00 in0.0 mm 0.00 in0.0 mm 0.36 in9.1 mm
07:45 PM 69.3°F20.7°C 63.2°F17.3°C 81% 6.6 mph SW10.6 kmh SW 13.9 mph22.4 kmh 28.97 in981.0 mb 0.00 in0.0 mm 0.00 in0.0 mm 0.36 in9.1 mm
07:40 PM 69.3°F20.7°C 63.6°F17.6°C 82% 7.4 mph WSW11.9 kmh WSW 19.1 mph30.7 kmh 28.97 in981.0 mb 0.00 in0.0 mm 0.00 in0.0 mm 0.36 in9.1 mm
07:36 PM 68.9°F20.5°C 62.8°F17.1°C 81% 7.5 mph W12.1 kmh W 19.1 mph30.7 kmh 28.97 in981.0 mb 0.00 in0.0 mm 0.00 in0.0 mm 0.36 in9.1 mm
07:30 PM 68.7°F20.4°C 62.2°F16.8°C 80% 6.9 mph WSW11.1 kmh WSW 11.7 mph18.8 kmh 28.97 in981.0 mb 0.00 in0.0 mm 0.00 in0.0 mm 0.36 in9.1 mm
07:25 PM 68.5°F20.3°C 61.2°F16.2°C 77% 5.4 mph WSW8.7 kmh WSW 11.7 mph18.8 kmh 28.97 in981.0 mb 0.00 in0.0 mm 0.00 in0.0 mm 0.36 in9.1 mm
07:21 PM 68.5°F20.3°C 60.7°F15.9°C 76% 6.5 mph W10.5 kmh W 13.9 mph22.4 kmh 28.97 in981.0 mb 0.00 in0.0 mm 0.00 in0.0 mm 0.36 in9.1 mm
07:15 PM 68.5°F20.3°C 60.3°F15.7°C 75% 7.1 mph WSW11.4 kmh WSW 19.1 mph30.7 kmh 28.97 in981.0 mb 0.00 in0.0 mm 0.00 in0.0 mm 0.36 in9.1 mm
07:10 PM 68.7°F20.4°C 60.9°F16.1°C 76% 7.1 mph WSW11.4 kmh WSW 22.3 mph35.9 kmh 28.97 in981.0 mb 0.00 in0.0 mm 0.00 in0.0 mm 0.36 in9.1 mm
07:05 PM 68.9°F20.5°C 61.1°F16.2°C 76% 11.0 mph WSW17.7 kmh WSW 23.1 mph37.2 kmh 28.97 in981.0 mb 0.00 in0.0 mm 0.00 in0.0 mm 0.36 in9.1 mm
07:00 PM 69.4°F20.8°C 59.3°F15.2°C 70% 10.3 mph W16.6 kmh W 23.1 mph37.2 kmh 28.97 in981.0 mb 0.00 in0.0 mm 0.00 in0.0 mm 0.36 in9.1 mm
06:55 PM 70.0°F21.1°C 59.0°F15.0°C 68% 11.4 mph W18.3 kmh W 26.5 mph42.6 kmh 28.97 in981.0 mb 0.00 in0.0 mm 0.00 in0.0 mm 0.36 in9.1 mm
06:50 PM 70.7°F21.5°C 58.1°F14.5°C 64% 11.2 mph W18.0 kmh W 33.1 mph53.3 kmh 28.97 in981.0 mb 0.00 in0.0 mm 0.00 in0.0 mm 0.36 in9.1 mm
06:45 PM 71.4°F21.9°C 57.2°F14.0°C 61% 11.4 mph W18.3 kmh W 33.1 mph53.3 kmh 28.94 in980.0 mb 0.00 in0.0 mm 0.00 in0.0 mm 0.36 in9.1 mm
06:40 PM 72.0°F22.2°C 55.5°F13.1°C 56% 4.6 mph W7.4 kmh W 15.2 mph24.5 kmh 28.94 in980.0 mb 0.12 in3.0 mm 0.00 in0.0 mm 0.36 in9.1 mm
06:35 PM 72.1°F22.3°C 55.6°F13.1°C 56% 6.8 mph WSW10.9 kmh WSW 15.2 mph24.5 kmh 28.94 in980.0 mb 0.36 in9.1 mm 0.00 in0.0 mm 0.36 in9.1 mm
06:30 PM 72.3°F22.4°C 55.1°F12.8°C 55% 5.1 mph WSW8.2 kmh WSW 12.0 mph19.3 kmh 28.94 in980.0 mb 0.36 in9.1 mm 0.98 in24.9 mm 0.36 in9.1 mm
05:52 PM 70.0°F21.1°C 50.0°F10.0°C 49% 5.6 mph SW9.0 kmh SW 4.0 mph6.4 kmh 28.94 in980.0 mb 0.00 in0.0 mm 0.00 in0.0 mm 0.24 in6.1 mm
05:47 PM 70.0°F21.1°C 46.4°F8.0°C 44% 5.6 mph SW9.0 kmh SW 3.6 mph5.8 kmh 28.97 in981.0 mb 0.00 in0.0 mm 0.00 in0.0 mm 0.24 in6.1 mm
05:41 PM 70.7°F21.5°C 51.6°F10.9°C 51% 9.1 mph SW14.6 kmh SW 32.0 mph51.5 kmh 28.97 in981.0 mb 0.24 in6.1 mm 0.00 in0.0 mm 0.24 in6.1 mm
05:36 PM 72.7°F22.6°C 51.4°F10.8°C 47% 15.7 mph SW25.3 kmh SW 35.3 mph56.8 kmh 28.97 in981.0 mb 0.24 in6.1 mm 2.88 in73.2 mm 0.24 in6.1 mm
05:31 PM 75.7°F24.3°C 49.7°F9.8°C 40% 14.5 mph WSW23.3 kmh WSW 35.3 mph56.8 kmh 28.91 in979.0 mb 0.00 in0.0 mm 0.00 in0.0 mm 0.00 in0.0 mm
05:26 PM 77.9°F25.5°C 49.1°F9.5°C 37% 14.4 mph SW23.2 kmh SW 34.5 mph55.5 kmh 28.91 in979.0 mb 0.00 in0.0 mm 0.00 in0.0 mm 0.00 in0.0 mm
05:21 PM 78.3°F25.7°C 49.4°F9.7°C 37% 5.4 mph SW8.7 kmh SW 18.1 mph29.1 kmh 28.91 in979.0 mb 0.00 in0.0 mm 0.00 in0.0 mm 0.00 in0.0 mm
05:16 PM 78.4°F25.8°C 49.5°F9.7°C 37% 6.3 mph SW10.1 kmh SW 19.9 mph32.0 kmh 28.91 in979.0 mb 0.00 in0.0 mm 0.00 in0.0 mm 0.00 in0.0 mm
05:11 PM 78.4°F25.8°C 49.5°F9.7°C 37% 8.8 mph WSW14.2 kmh WSW 19.9 mph32.0 kmh 28.91 in979.0 mb 0.00 in0.0 mm 0.00 in0.0 mm 0.00 in0.0 mm
05:06 PM 78.8°F26.0°C 49.8°F9.9°C 37% 8.0 mph S12.9 kmh S 19.9 mph32.0 kmh 28.91 in979.0 mb 0.00 in0.0 mm 0.00 in0.0 mm 0.00 in0.0 mm
05:01 PM 78.8°F26.0°C 49.8°F9.9°C 36% 8.7 mph SW14.0 kmh SW 19.9 mph32.0 kmh 28.91 in979.0 mb 0.00 in0.0 mm 0.00 in0.0 mm 0.00 in0.0 mm
04:56 PM 79.2°F26.2°C 51.0°F10.6°C 38% 6.5 mph SW10.5 kmh SW 18.1 mph29.1 kmh 28.91 in979.0 mb 0.00 in0.0 mm 0.00 in0.0 mm 0.00 in0.0 mm
04:51 PM 79.2°F26.2°C 51.9°F11.1°C 39% 7.4 mph S11.9 kmh S 23.1 mph37.2 kmh 28.91 in979.0 mb 0.00 in0.0 mm 0.00 in0.0 mm 0.00 in0.0 mm
04:46 PM 78.8°F26.0°C 51.5°F10.8°C 39% 8.0 mph SW12.9 kmh SW 23.1 mph37.2 kmh 28.91 in979.0 mb 0.00 in0.0 mm 0.00 in0.0 mm 0.00 in0.0 mm
04:41 PM 78.6°F25.9°C 53.0°F11.7°C 41% 6.8 mph WSW10.9 kmh WSW 23.1 mph37.2 kmh 28.91 in979.0 mb 0.00 in0.0 mm 0.00 in0.0 mm 0.00 in0.0 mm
04:36 PM 78.6°F25.9°C 55.3°F12.9°C 45% 5.9 mph SW9.5 kmh SW 23.1 mph37.2 kmh 28.91 in979.0 mb 0.00 in0.0 mm 0.00 in0.0 mm 0.00 in0.0 mm
04:31 PM 78.4°F25.8°C 54.4°F12.4°C 44% 10.4 mph SW16.7 kmh SW 23.1 mph37.2 kmh 28.91 in979.0 mb 0.00 in0.0 mm 0.00 in0.0 mm 0.00 in0.0 mm
04:26 PM 78.1°F25.6°C 54.2°F12.3°C 44% 10.7 mph SW17.2 kmh SW 26.4 mph42.5 kmh 28.91 in979.0 mb 0.00 in0.0 mm 0.00 in0.0 mm 0.00 in0.0 mm
04:21 PM 77.9°F25.5°C 54.8°F12.7°C 45% 10.9 mph SW17.5 kmh SW 26.4 mph42.5 kmh 28.91 in979.0 mb 0.00 in0.0 mm 0.00 in0.0 mm 0.00 in0.0 mm
04:16 PM 77.7°F25.4°C 57.4°F14.1°C 50% 10.0 mph S16.1 kmh S 23.9 mph38.5 kmh 28.94 in980.0 mb 0.00 in0.0 mm 0.00 in0.0 mm 0.00 in0.0 mm
04:11 PM 77.4°F25.2°C 56.5°F13.6°C 48% 11.6 mph SW18.7 kmh SW 26.4 mph42.5 kmh 28.94 in980.0 mb 0.00 in0.0 mm 0.00 in0.0 mm 0.00 in0.0 mm
04:05 PM 77.0°F25.0°C 58.1°F14.5°C 52% 12.6 mph SW20.3 kmh SW 26.4 mph42.5 kmh 28.94 in980.0 mb 0.00 in0.0 mm 0.00 in0.0 mm 0.00 in0.0 mm
04:01 PM 76.6°F24.8°C 59.0°F15.0°C 54% 7.1 mph SW11.4 kmh SW 29.6 mph47.6 kmh 28.94 in980.0 mb 0.00 in0.0 mm 0.00 in0.0 mm 0.00 in0.0 mm
03:55 PM 76.3°F24.6°C 60.0°F15.6°C 57% 9.9 mph SW15.9 kmh SW 29.6 mph47.6 kmh 28.94 in980.0 mb 0.00 in0.0 mm 0.00 in0.0 mm 0.00 in0.0 mm
03:50 PM 76.1°F24.5°C 62.1°F16.7°C 61% 9.4 mph SW15.1 kmh SW 23.4 mph37.7 kmh 28.94 in980.0 mb 0.00 in0.0 mm 0.00 in0.0 mm 0.00 in0.0 mm
03:45 PM 75.7°F24.3°C 63.3°F17.4°C 65% 10.7 mph SW17.2 kmh SW 23.4 mph37.7 kmh 28.94 in980.0 mb 0.00 in0.0 mm 0.00 in0.0 mm 0.00 in0.0 mm
03:40 PM 75.6°F24.2°C 63.2°F17.3°C 65% 8.8 mph SSW14.2 kmh SSW 23.4 mph37.7 kmh 28.94 in980.0 mb 0.00 in0.0 mm 0.00 in0.0 mm 0.00 in0.0 mm
03:35 PM 75.0°F23.9°C 64.2°F17.9°C 69% 5.9 mph SW9.5 kmh SW 23.4 mph37.7 kmh 28.94 in980.0 mb 0.00 in0.0 mm 0.00 in0.0 mm 0.00 in0.0 mm
03:30 PM 74.5°F23.6°C 64.2°F17.9°C 70% 4.7 mph SW7.6 kmh SW 14.4 mph23.2 kmh 28.94 in980.0 mb 0.00 in0.0 mm 0.00 in0.0 mm 0.00 in0.0 mm
03:25 PM 74.1°F23.4°C 64.3°F17.9°C 71% 7.3 mph S11.7 kmh S 20.6 mph33.2 kmh 28.94 in980.0 mb 0.00 in0.0 mm 0.00 in0.0 mm 0.00 in0.0 mm
03:20 PM 73.8°F23.2°C 64.0°F17.8°C 71% 8.1 mph SSW13.0 kmh SSW 20.6 mph33.2 kmh 28.94 in980.0 mb 0.00 in0.0 mm 0.00 in0.0 mm 0.00 in0.0 mm
03:15 PM 73.6°F23.1°C 64.7°F18.2°C 73% 5.1 mph SSW8.2 kmh SSW 16.9 mph27.2 kmh 28.94 in980.0 mb 0.00 in0.0 mm 0.00 in0.0 mm 0.00 in0.0 mm
03:09 PM 73.0°F22.8°C 64.6°F18.1°C 75% 7.5 mph SW12.1 kmh SW 19.9 mph32.0 kmh 28.94 in980.0 mb 0.00 in0.0 mm 0.00 in0.0 mm 0.00 in0.0 mm
03:05 PM 72.7°F22.6°C 64.3°F17.9°C 75% 6.5 mph SW10.5 kmh SW 19.9 mph32.0 kmh 28.97 in981.0 mb 0.00 in0.0 mm 0.00 in0.0 mm 0.00 in0.0 mm
02:59 PM 71.8°F22.1°C 62.5°F16.9°C 72% 4.1 mph S6.6 kmh S 10.4 mph16.7 kmh 28.97 in981.0 mb 0.00 in0.0 mm 0.00 in0.0 mm 0.00 in0.0 mm
02:54 PM 71.1°F21.7°C 61.9°F16.6°C 72% 3.2 mph SSW5.1 kmh SSW 13.2 mph21.2 kmh 28.97 in981.0 mb 0.00 in0.0 mm 0.00 in0.0 mm 0.00 in0.0 mm
02:49 PM 70.3°F21.3°C 60.2°F15.7°C 70% 3.7 mph SW6.0 kmh SW 14.4 mph23.2 kmh 28.97 in981.0 mb 0.00 in0.0 mm 0.00 in0.0 mm 0.00 in0.0 mm
02:44 PM 70.0°F21.1°C 60.8°F16.0°C 72% 5.3 mph SW8.5 kmh SW 20.6 mph33.2 kmh 28.97 in981.0 mb 0.00 in0.0 mm 0.00 in0.0 mm 0.00 in0.0 mm
02:38 PM 70.0°F21.1°C 60.4°F15.8°C 71% 6.9 mph SSW11.1 kmh SSW 20.6 mph33.2 kmh 28.97 in981.0 mb 0.00 in0.0 mm 0.00 in0.0 mm 0.00 in0.0 mm
02:33 PM 70.2°F21.2°C 58.7°F14.8°C 67% 8.2 mph SW13.2 kmh SW 21.2 mph34.1 kmh 28.97 in981.0 mb 0.00 in0.0 mm 0.00 in0.0 mm 0.00 in0.0 mm
02:28 PM 71.1°F21.7°C 56.4°F13.6°C 59% 12.1 mph SW19.5 kmh SW 21.2 mph34.1 kmh 28.97 in981.0 mb 0.00 in0.0 mm 0.00 in0.0 mm 0.00 in0.0 mm
02:23 PM 72.5°F22.5°C 54.8°F12.7°C 54% 11.3 mph WSW18.2 kmh WSW 25.8 mph41.5 kmh 28.97 in981.0 mb 0.00 in0.0 mm 0.00 in0.0 mm 0.00 in0.0 mm
02:18 PM 75.0°F23.9°C 52.4°F11.3°C 45% 11.8 mph SW19.0 kmh SW 25.8 mph41.5 kmh 28.94 in980.0 mb 0.00 in0.0 mm 0.00 in0.0 mm 0.00 in0.0 mm
02:13 PM 77.4°F25.2°C 50.8°F10.4°C 40% 7.4 mph SW11.9 kmh SW 17.6 mph28.3 kmh 28.94 in980.0 mb 0.00 in0.0 mm 0.00 in0.0 mm 0.00 in0.0 mm
02:08 PM 78.1°F25.6°C 50.6°F10.3°C 38% 7.5 mph SSW12.1 kmh SSW 18.1 mph29.1 kmh 28.94 in980.0 mb 0.00 in0.0 mm 0.00 in0.0 mm 0.00 in0.0 mm
02:03 PM 79.0°F26.1°C 51.4°F10.8°C 38% 8.9 mph SSW14.3 kmh SSW 19.4 mph31.2 kmh 28.97 in981.0 mb 0.00 in0.0 mm 0.00 in0.0 mm 0.00 in0.0 mm
01:58 PM 79.5°F26.4°C 51.8°F11.0°C 38% 6.0 mph SW9.7 kmh SW 20.6 mph33.2 kmh 28.97 in981.0 mb 0.00 in0.0 mm 0.00 in0.0 mm 0.00 in0.0 mm
01:53 PM 79.5°F26.4°C 52.7°F11.5°C 40% 9.5 mph S15.3 kmh S 20.6 mph33.2 kmh 28.97 in981.0 mb 0.00 in0.0 mm 0.00 in0.0 mm 0.00 in0.0 mm
01:48 PM 78.8°F26.0°C 52.9°F11.6°C 41% 6.4 mph SW10.3 kmh SW 23.4 mph37.7 kmh 28.97 in981.0 mb 0.00 in0.0 mm 0.00 in0.0 mm 0.00 in0.0 mm
01:43 PM 78.3°F25.7°C 53.2°F11.8°C 42% 9.6 mph S15.4 kmh S 23.4 mph37.7 kmh 28.97 in981.0 mb 0.00 in0.0 mm 0.00 in0.0 mm 0.00 in0.0 mm
01:38 PM 77.7°F25.4°C 52.7°F11.5°C 42% 6.4 mph SSW10.3 kmh SSW 20.6 mph33.2 kmh 28.97 in981.0 mb 0.00 in0.0 mm 0.00 in0.0 mm 0.00 in0.0 mm
01:33 PM 77.5°F25.3°C 52.5°F11.4°C 42% 8.4 mph SW13.5 kmh SW 20.6 mph33.2 kmh 28.97 in981.0 mb 0.00 in0.0 mm 0.00 in0.0 mm 0.00 in0.0 mm
01:28 PM 77.9°F25.5°C 52.9°F11.6°C 42% 7.1 mph SSW11.4 kmh SSW 17.6 mph28.3 kmh 28.97 in981.0 mb 0.00 in0.0 mm 0.00 in0.0 mm 0.00 in0.0 mm
01:22 PM 78.1°F25.6°C 53.1°F11.7°C 42% 9.4 mph SSW15.1 kmh SSW 17.6 mph28.3 kmh 28.97 in981.0 mb 0.00 in0.0 mm 0.00 in0.0 mm 0.00 in0.0 mm
01:17 PM 77.5°F25.3°C 53.3°F11.8°C 43% 4.7 mph S7.6 kmh S 15.1 mph24.3 kmh 28.97 in981.0 mb 0.00 in0.0 mm 0.00 in0.0 mm 0.00 in0.0 mm
01:12 PM 77.0°F25.0°C 52.9°F11.6°C 43% 4.2 mph SW6.8 kmh SW 21.9 mph35.2 kmh 28.97 in981.0 mb 0.00 in0.0 mm 0.00 in0.0 mm 0.00 in0.0 mm
01:06 PM 77.0°F25.0°C 52.1°F11.2°C 42% 6.4 mph S10.3 kmh S 21.9 mph35.2 kmh 28.97 in981.0 mb 0.00 in0.0 mm 0.00 in0.0 mm 0.00 in0.0 mm
01:01 PM 77.2°F25.1°C 52.3°F11.3°C 42% 7.0 mph SW11.3 kmh SW 17.6 mph28.3 kmh 28.97 in981.0 mb 0.00 in0.0 mm 0.00 in0.0 mm 0.00 in0.0 mm
12:56 PM 77.2°F25.1°C 52.3°F11.3°C 42% 7.3 mph S11.7 kmh S 16.4 mph26.4 kmh 28.97 in981.0 mb 0.00 in0.0 mm 0.00 in0.0 mm 0.00 in0.0 mm
12:51 PM 77.0°F25.0°C 52.1°F11.2°C 42% 8.2 mph S13.2 kmh S 17.6 mph28.3 kmh 28.97 in981.0 mb 0.00 in0.0 mm 0.00 in0.0 mm 0.00 in0.0 mm
12:46 PM 77.0°F25.0°C 51.4°F10.8°C 41% 7.2 mph SW11.6 kmh SW 23.1 mph37.2 kmh 28.97 in981.0 mb 0.00 in0.0 mm 0.00 in0.0 mm 0.00 in0.0 mm
12:41 PM 77.4°F25.2°C 51.7°F10.9°C 41% 9.2 mph SSW14.8 kmh SSW 23.9 mph38.5 kmh 28.97 in981.0 mb 0.00 in0.0 mm 0.00 in0.0 mm 0.00 in0.0 mm
12:36 PM 77.5°F25.3°C 51.8°F11.0°C 41% 8.4 mph SW13.5 kmh SW 23.9 mph38.5 kmh 28.97 in981.0 mb 0.00 in0.0 mm 0.00 in0.0 mm 0.00 in0.0 mm
12:31 PM 77.7°F25.4°C 52.0°F11.1°C 41% 7.7 mph S12.4 kmh S 23.9 mph38.5 kmh 28.97 in981.0 mb 0.00 in0.0 mm 0.00 in0.0 mm 0.00 in0.0 mm
12:26 PM 77.7°F25.4°C 52.0°F11.1°C 41% 6.4 mph S10.3 kmh S 14.4 mph23.2 kmh 28.97 in981.0 mb 0.00 in0.0 mm 0.00 in0.0 mm 0.00 in0.0 mm
12:21 PM 77.5°F25.3°C 52.6°F11.4°C 42% 7.4 mph S11.9 kmh S 14.4 mph23.2 kmh 28.97 in981.0 mb 0.00 in0.0 mm 0.00 in0.0 mm 0.00 in0.0 mm
12:16 PM 77.2°F25.1°C 51.6°F10.9°C 41% 3.4 mph SW5.5 kmh SW 15.1 mph24.3 kmh 29.00 in982.1 mb 0.00 in0.0 mm 0.00 in0.0 mm 0.00 in0.0 mm
12:10 PM 77.2°F25.1°C 52.4°F11.3°C 42% 5.3 mph SSW8.5 kmh SSW 15.1 mph24.3 kmh 29.00 in982.1 mb 0.00 in0.0 mm 0.00 in0.0 mm 0.00 in0.0 mm
12:06 PM 76.8°F24.9°C 52.8°F11.6°C 43% 8.2 mph SW13.2 kmh SW 19.9 mph32.0 kmh 29.00 in982.1 mb 0.00 in0.0 mm 0.00 in0.0 mm 0.00 in0.0 mm
12:01 PM 76.5°F24.7°C 52.5°F11.4°C 43% 8.8 mph SW14.2 kmh SW 19.9 mph32.0 kmh 29.00 in982.1 mb 0.00 in0.0 mm 0.00 in0.0 mm 0.00 in0.0 mm
11:56 AM 76.1°F24.5°C 52.9°F11.6°C 45% 7.6 mph SW12.2 kmh SW 18.1 mph29.1 kmh 29.00 in982.1 mb 0.00 in0.0 mm 0.00 in0.0 mm 0.00 in0.0 mm
11:51 AM 75.7°F24.3°C 52.5°F11.4°C 45% 4.0 mph WSW6.4 kmh WSW 12.0 mph19.3 kmh 29.00 in982.1 mb 0.00 in0.0 mm 0.00 in0.0 mm 0.00 in0.0 mm
11:45 AM 75.6°F24.2°C 51.7°F10.9°C 43% 6.2 mph SW10.0 kmh SW 13.9 mph22.4 kmh 29.00 in982.1 mb 0.00 in0.0 mm 0.00 in0.0 mm 0.00 in0.0 mm
11:40 AM 75.7°F24.3°C 52.5°F11.4°C 45% 6.4 mph SW10.3 kmh SW 14.4 mph23.2 kmh 29.00 in982.1 mb 0.00 in0.0 mm 0.00 in0.0 mm 0.00 in0.0 mm
11:35 AM 75.9°F24.4°C 51.9°F11.1°C 43% 6.5 mph SW10.5 kmh SW 17.6 mph28.3 kmh 29.00 in982.1 mb 0.00 in0.0 mm 0.00 in0.0 mm 0.00 in0.0 mm
11:30 AM 76.1°F24.5°C 52.9°F11.6°C 45% 6.8 mph SW10.9 kmh SW 18.7 mph30.1 kmh 29.00 in982.1 mb 0.00 in0.0 mm 0.00 in0.0 mm 0.00 in0.0 mm
11:25 AM 75.6°F24.2°C 53.9°F12.2°C 47% 8.8 mph SSW14.2 kmh SSW 18.7 mph30.1 kmh 29.00 in982.1 mb 0.00 in0.0 mm 0.00 in0.0 mm 0.00 in0.0 mm
11:20 AM 75.0°F23.9°C 52.6°F11.4°C 46% 5.6 mph SSW9.0 kmh SSW 13.2 mph21.2 kmh 29.00 in982.1 mb 0.00 in0.0 mm 0.00 in0.0 mm 0.00 in0.0 mm
11:15 AM 74.7°F23.7°C 53.0°F11.7°C 47% 6.5 mph S10.5 kmh S 13.2 mph21.2 kmh 29.00 in982.1 mb 0.00 in0.0 mm 0.00 in0.0 mm 0.00 in0.0 mm
11:10 AM 74.5°F23.6°C 52.9°F11.6°C 47% 6.1 mph SW9.8 kmh SW 13.9 mph22.4 kmh 29.00 in982.1 mb 0.00 in0.0 mm 0.00 in0.0 mm 0.00 in0.0 mm
11:05 AM 74.1°F23.4°C 52.5°F11.4°C 47% 4.9 mph SW7.9 kmh SW 13.9 mph22.4 kmh 29.00 in982.1 mb 0.00 in0.0 mm 0.00 in0.0 mm 0.00 in0.0 mm
11:00 AM 73.9°F23.3°C 51.6°F10.9°C 46% 4.8 mph SW7.7 kmh SW 18.7 mph30.1 kmh 29.00 in982.1 mb 0.00 in0.0 mm 0.00 in0.0 mm 0.00 in0.0 mm
10:55 AM 73.8°F23.2°C 52.2°F11.2°C 47% 5.9 mph SSW9.5 kmh SSW 18.7 mph30.1 kmh 29.00 in982.1 mb 0.00 in0.0 mm 0.00 in0.0 mm 0.00 in0.0 mm
10:50 AM 73.4°F23.0°C 51.8°F11.0°C 47% 5.4 mph SW8.7 kmh SW 13.2 mph21.2 kmh 29.00 in982.1 mb 0.00 in0.0 mm 0.00 in0.0 mm 0.00 in0.0 mm
10:44 AM 72.9°F22.7°C 51.4°F10.8°C 47% 5.1 mph SW8.2 kmh SW 15.7 mph25.3 kmh 29.00 in982.1 mb 0.00 in0.0 mm 0.00 in0.0 mm 0.00 in0.0 mm
10:39 AM 72.9°F22.7°C 50.7°F10.4°C 46% 5.5 mph SSW8.9 kmh SSW 15.7 mph25.3 kmh 29.00 in982.1 mb 0.00 in0.0 mm 0.00 in0.0 mm 0.00 in0.0 mm
10:34 AM 72.9°F22.7°C 50.7°F10.4°C 46% 3.6 mph S5.8 kmh S 13.9 mph22.4 kmh 29.00 in982.1 mb 0.00 in0.0 mm 0.00 in0.0 mm 0.00 in0.0 mm
10:29 AM 72.9°F22.7°C 49.9°F9.9°C 44% 6.3 mph S10.1 kmh S 13.9 mph22.4 kmh 29.00 in982.1 mb 0.00 in0.0 mm 0.00 in0.0 mm 0.00 in0.0 mm
10:21 AM 72.9°F22.7°C 49.9°F9.9°C 44% 3.2 mph S5.1 kmh S 17.6 mph28.3 kmh 29.00 in982.1 mb 0.00 in0.0 mm 0.00 in0.0 mm 0.00 in0.0 mm
10:16 AM 72.7°F22.6°C 49.7°F9.8°C 44% 5.0 mph SW8.0 kmh SW 17.6 mph28.3 kmh 29.03 in983.1 mb 0.00 in0.0 mm 0.00 in0.0 mm 0.00 in0.0 mm
10:11 AM 72.7°F22.6°C 49.0°F9.4°C 43% 3.2 mph SW5.1 kmh SW 15.1 mph24.3 kmh 29.03 in983.1 mb 0.00 in0.0 mm 0.00 in0.0 mm 0.00 in0.0 mm
10:06 AM 72.7°F22.6°C 49.0°F9.4°C 43% 8.0 mph SSW12.9 kmh SSW 15.7 mph25.3 kmh 29.03 in983.1 mb 0.00 in0.0 mm 0.00 in0.0 mm 0.00 in0.0 mm
10:01 AM 72.9°F22.7°C 49.1°F9.5°C 43% 5.8 mph SSW9.3 kmh SSW 15.7 mph25.3 kmh 29.03 in983.1 mb 0.00 in0.0 mm 0.00 in0.0 mm 0.00 in0.0 mm
09:56 AM 73.0°F22.8°C 49.2°F9.6°C 43% 6.8 mph SW10.9 kmh SW 18.1 mph29.1 kmh 29.03 in983.1 mb 0.00 in0.0 mm 0.00 in0.0 mm 0.00 in0.0 mm
09:51 AM 73.2°F22.9°C 49.4°F9.7°C 43% 8.9 mph SW14.3 kmh SW 18.1 mph29.1 kmh 29.03 in983.1 mb 0.00 in0.0 mm 0.00 in0.0 mm 0.00 in0.0 mm
09:46 AM 73.2°F22.9°C 48.6°F9.2°C 42% 5.3 mph SW8.5 kmh SW 17.6 mph28.3 kmh 29.03 in983.1 mb 0.00 in0.0 mm 0.00 in0.0 mm 0.00 in0.0 mm
09:41 AM 73.2°F22.9°C 49.4°F9.7°C 43% 5.1 mph SSW8.2 kmh SSW 23.1 mph37.2 kmh 29.03 in983.1 mb 0.00 in0.0 mm 0.00 in0.0 mm 0.00 in0.0 mm
09:36 AM 73.2°F22.9°C 48.6°F9.2°C 42% 8.7 mph SSW14.0 kmh SSW 23.1 mph37.2 kmh 29.03 in983.1 mb 0.00 in0.0 mm 0.00 in0.0 mm 0.00 in0.0 mm
09:31 AM 73.0°F22.8°C 48.4°F9.1°C 42% 8.5 mph SW13.7 kmh SW 16.9 mph27.2 kmh 29.03 in983.1 mb 0.00 in0.0 mm 0.00 in0.0 mm 0.00 in0.0 mm
09:26 AM 73.2°F22.9°C 48.6°F9.2°C 42% 5.9 mph SW9.5 kmh SW 16.9 mph27.2 kmh 29.03 in983.1 mb 0.00 in0.0 mm 0.00 in0.0 mm 0.00 in0.0 mm
09:21 AM 73.4°F23.0°C 48.0°F8.9°C 41% 5.5 mph SSW8.9 kmh SSW 16.9 mph27.2 kmh 29.03 in983.1 mb 0.00 in0.0 mm 0.00 in0.0 mm 0.00 in0.0 mm
09:16 AM 73.6°F23.1°C 48.1°F8.9°C 41% 7.3 mph SW11.7 kmh SW 16.9 mph27.2 kmh 29.03 in983.1 mb 0.00 in0.0 mm 0.00 in0.0 mm 0.00 in0.0 mm
09:11 AM 73.6°F23.1°C 48.9°F9.4°C 42% 5.4 mph SSW8.7 kmh SSW 14.4 mph23.2 kmh 29.03 in983.1 mb 0.00 in0.0 mm 0.00 in0.0 mm 0.00 in0.0 mm
09:06 AM 73.0°F22.8°C 49.1°F9.5°C 43% 6.0 mph SW9.7 kmh SW 16.9 mph27.2 kmh 29.03 in983.1 mb 0.00 in0.0 mm 0.00 in0.0 mm 0.00 in0.0 mm
09:01 AM 72.5°F22.5°C 48.7°F9.3°C 43% 6.4 mph SSE10.3 kmh SSE 16.9 mph27.2 kmh 29.03 in983.1 mb 0.00 in0.0 mm 0.00 in0.0 mm 0.00 in0.0 mm
08:56 AM 71.6°F22.0°C 47.8°F8.8°C 43% 4.6 mph S7.4 kmh S 16.9 mph27.2 kmh 29.03 in983.1 mb 0.00 in0.0 mm 0.00 in0.0 mm 0.00 in0.0 mm
08:51 AM 71.2°F21.8°C 47.5°F8.6°C 43% 6.7 mph S10.8 kmh S 16.9 mph27.2 kmh 29.03 in983.1 mb 0.00 in0.0 mm 0.00 in0.0 mm 0.00 in0.0 mm
08:46 AM 71.4°F21.9°C 47.6°F8.7°C 43% 5.5 mph SW8.9 kmh SW 12.0 mph19.3 kmh 29.03 in983.1 mb 0.00 in0.0 mm 0.00 in0.0 mm 0.00 in0.0 mm
08:41 AM 71.2°F21.8°C 47.4°F8.6°C 43% 5.5 mph SSW8.9 kmh SSW 12.0 mph19.3 kmh 29.03 in983.1 mb 0.00 in0.0 mm 0.00 in0.0 mm 0.00 in0.0 mm
08:36 AM 70.7°F21.5°C 47.0°F8.3°C 43% 6.3 mph SSW10.1 kmh SSW 16.9 mph27.2 kmh 29.03 in983.1 mb 0.00 in0.0 mm 0.00 in0.0 mm 0.00 in0.0 mm
08:31 AM 70.3°F21.3°C 46.6°F8.1°C 43% 6.6 mph SSW10.6 kmh SSW 16.9 mph27.2 kmh 29.03 in983.1 mb 0.00 in0.0 mm 0.00 in0.0 mm 0.00 in0.0 mm
08:26 AM 70.0°F21.1°C 46.3°F7.9°C 43% 5.6 mph SSW9.0 kmh SSW 12.0 mph19.3 kmh 29.03 in983.1 mb 0.00 in0.0 mm 0.00 in0.0 mm 0.00 in0.0 mm
08:21 AM 70.0°F21.1°C 45.5°F7.5°C 42% 5.9 mph S9.5 kmh S 12.0 mph19.3 kmh 29.03 in983.1 mb 0.00 in0.0 mm 0.00 in0.0 mm 0.00 in0.0 mm
08:15 AM 70.0°F21.1°C 45.5°F7.5°C 42% 3.9 mph SW6.3 kmh SW 12.0 mph19.3 kmh 29.03 in983.1 mb 0.00 in0.0 mm 0.00 in0.0 mm 0.00 in0.0 mm
08:10 AM 70.0°F21.1°C 45.5°F7.5°C 42% 4.5 mph SW7.2 kmh SW 14.4 mph23.2 kmh 29.03 in983.1 mb 0.00 in0.0 mm 0.00 in0.0 mm 0.00 in0.0 mm
08:05 AM 69.8°F21.0°C 45.3°F7.4°C 42% 6.4 mph S10.3 kmh S 14.4 mph23.2 kmh 29.03 in983.1 mb 0.00 in0.0 mm 0.00 in0.0 mm 0.00 in0.0 mm
07:59 AM 69.4°F20.8°C 45.7°F7.6°C 43% 7.0 mph SW11.3 kmh SW 16.9 mph27.2 kmh 29.03 in983.1 mb 0.00 in0.0 mm 0.00 in0.0 mm 0.00 in0.0 mm
07:54 AM 69.3°F20.7°C 45.6°F7.6°C 43% 3.1 mph S5.0 kmh S 13.9 mph22.4 kmh 29.03 in983.1 mb 0.00 in0.0 mm 0.00 in0.0 mm 0.00 in0.0 mm
07:49 AM 69.1°F20.6°C 44.6°F7.0°C 42% 7.4 mph S11.9 kmh S 13.9 mph22.4 kmh 29.03 in983.1 mb 0.00 in0.0 mm 0.00 in0.0 mm 0.00 in0.0 mm
07:44 AM 68.9°F20.5°C 44.4°F6.9°C 42% 5.8 mph SSW9.3 kmh SSW 14.4 mph23.2 kmh 29.03 in983.1 mb 0.00 in0.0 mm 0.00 in0.0 mm 0.00 in0.0 mm
07:39 AM 68.9°F20.5°C 44.4°F6.9°C 42% 6.3 mph SE10.1 kmh SE 14.4 mph23.2 kmh 29.03 in983.1 mb 0.00 in0.0 mm 0.00 in0.0 mm 0.00 in0.0 mm
07:34 AM 68.9°F20.5°C 44.4°F6.9°C 41% 4.8 mph S7.7 kmh S 15.1 mph24.3 kmh 29.03 in983.1 mb 0.00 in0.0 mm 0.00 in0.0 mm 0.00 in0.0 mm
07:27 AM 68.9°F20.5°C 44.4°F6.9°C 41% 5.4 mph S8.7 kmh S 16.4 mph26.4 kmh 29.03 in983.1 mb 0.00 in0.0 mm 0.00 in0.0 mm 0.00 in0.0 mm
07:22 AM 68.9°F20.5°C 44.4°F6.9°C 41% 5.5 mph SSW8.9 kmh SSW 16.4 mph26.4 kmh 29.03 in983.1 mb 0.00 in0.0 mm 0.00 in0.0 mm 0.00 in0.0 mm
07:16 AM 68.7°F20.4°C 44.2°F6.8°C 41% 5.3 mph SW8.5 kmh SW 16.9 mph27.2 kmh 29.03 in983.1 mb 0.00 in0.0 mm 0.00 in0.0 mm 0.00 in0.0 mm
07:11 AM 68.5°F20.3°C 44.0°F6.7°C 41% 6.3 mph S10.1 kmh S 18.1 mph29.1 kmh 29.03 in983.1 mb 0.00 in0.0 mm 0.00 in0.0 mm 0.00 in0.0 mm
07:06 AM 68.2°F20.1°C 43.7°F6.5°C 41% 6.5 mph SSW10.5 kmh SSW 18.1 mph29.1 kmh 29.03 in983.1 mb 0.00 in0.0 mm 0.00 in0.0 mm 0.00 in0.0 mm
07:01 AM 68.0°F20.0°C 43.5°F6.4°C 41% 6.5 mph SSE10.5 kmh SSE 19.9 mph32.0 kmh 29.00 in982.1 mb 0.00 in0.0 mm 0.00 in0.0 mm 0.00 in0.0 mm
06:56 AM 67.6°F19.8°C 43.1°F6.2°C 41% 6.5 mph S10.5 kmh S 19.9 mph32.0 kmh 29.00 in982.1 mb 0.00 in0.0 mm 0.00 in0.0 mm 0.00 in0.0 mm
06:51 AM 67.5°F19.7°C 43.0°F6.1°C 41% 4.1 mph SW6.6 kmh SW 15.1 mph24.3 kmh 29.00 in982.1 mb 0.00 in0.0 mm 0.00 in0.0 mm 0.00 in0.0 mm
06:46 AM 67.3°F19.6°C 42.8°F6.0°C 41% 8.2 mph S13.2 kmh S 15.1 mph24.3 kmh 29.00 in982.1 mb 0.00 in0.0 mm 0.00 in0.0 mm 0.00 in0.0 mm
06:41 AM 67.1°F19.5°C 42.6°F5.9°C 41% 6.1 mph SSW9.8 kmh SSW 14.4 mph23.2 kmh 29.00 in982.1 mb 0.00 in0.0 mm 0.00 in0.0 mm 0.00 in0.0 mm
06:36 AM 67.1°F19.5°C 42.6°F5.9°C 41% 6.9 mph S11.1 kmh S 15.1 mph24.3 kmh 29.00 in982.1 mb 0.00 in0.0 mm 0.00 in0.0 mm 0.00 in0.0 mm
06:30 AM 67.1°F19.5°C 42.6°F5.9°C 41% 5.9 mph S9.5 kmh S 16.9 mph27.2 kmh 29.03 in983.1 mb 0.00 in0.0 mm 0.00 in0.0 mm 0.00 in0.0 mm
06:25 AM 67.1°F19.5°C 42.6°F5.9°C 41% 6.6 mph SSW10.6 kmh SSW 17.6 mph28.3 kmh 29.03 in983.1 mb 0.00 in0.0 mm 0.00 in0.0 mm 0.00 in0.0 mm
06:20 AM 66.9°F19.4°C 42.4°F5.8°C 41% 5.8 mph SSW9.3 kmh SSW 17.6 mph28.3 kmh 29.03 in983.1 mb 0.00 in0.0 mm 0.00 in0.0 mm 0.00 in0.0 mm
06:15 AM 66.9°F19.4°C 42.4°F5.8°C 41% 7.4 mph SSW11.9 kmh SSW 15.1 mph24.3 kmh 29.03 in983.1 mb 0.00 in0.0 mm 0.00 in0.0 mm 0.00 in0.0 mm
06:10 AM 66.7°F19.3°C 42.3°F5.7°C 41% 6.7 mph S10.8 kmh S 15.1 mph24.3 kmh 29.03 in983.1 mb 0.00 in0.0 mm 0.00 in0.0 mm 0.00 in0.0 mm
06:05 AM 66.7°F19.3°C 42.3°F5.7°C 41% 4.2 mph SSW6.8 kmh SSW 12.0 mph19.3 kmh 29.03 in983.1 mb 0.00 in0.0 mm 0.00 in0.0 mm 0.00 in0.0 mm
06:00 AM 66.9°F19.4°C 42.5°F5.8°C 41% 6.3 mph S10.1 kmh S 12.0 mph19.3 kmh 29.03 in983.1 mb 0.00 in0.0 mm 0.00 in0.0 mm 0.00 in0.0 mm
05:55 AM 66.7°F19.3°C 42.3°F5.7°C 41% 5.0 mph SSW8.0 kmh SSW 12.0 mph19.3 kmh 29.03 in983.1 mb 0.00 in0.0 mm 0.00 in0.0 mm 0.00 in0.0 mm
05:50 AM 66.6°F19.2°C 42.3°F5.7°C 41% 6.7 mph S10.8 kmh S 11.4 mph18.3 kmh 29.03 in983.1 mb 0.00 in0.0 mm 0.00 in0.0 mm 0.00 in0.0 mm
05:45 AM 66.4°F19.1°C 42.1°F5.6°C 41% 6.1 mph S9.8 kmh S 13.9 mph22.4 kmh 29.03 in983.1 mb 0.00 in0.0 mm 0.00 in0.0 mm 0.00 in0.0 mm
05:40 AM 66.4°F19.1°C 42.1°F5.6°C 41% 5.7 mph SSW9.2 kmh SSW 13.9 mph22.4 kmh 29.03 in983.1 mb 0.00 in0.0 mm 0.00 in0.0 mm 0.00 in0.0 mm
05:35 AM 66.2°F19.0°C 41.9°F5.5°C 41% 6.2 mph S10.0 kmh S 11.4 mph18.3 kmh 29.03 in983.1 mb 0.00 in0.0 mm 0.00 in0.0 mm 0.00 in0.0 mm
05:30 AM 66.0°F18.9°C 41.8°F5.4°C 41% 4.2 mph SW6.8 kmh SW 11.4 mph18.3 kmh 29.03 in983.1 mb 0.00 in0.0 mm 0.00 in0.0 mm 0.00 in0.0 mm
05:23 AM 65.8°F18.8°C 41.6°F5.3°C 42% 3.4 mph SSE5.5 kmh SSE 11.4 mph18.3 kmh 29.03 in983.1 mb 0.00 in0.0 mm 0.00 in0.0 mm 0.00 in0.0 mm
05:18 AM 65.8°F18.8°C 41.6°F5.3°C 42% 5.5 mph S8.9 kmh S 11.4 mph18.3 kmh 29.03 in983.1 mb 0.00 in0.0 mm 0.00 in0.0 mm 0.00 in0.0 mm
05:13 AM 65.8°F18.8°C 41.7°F5.4°C 42% 4.8 mph S7.7 kmh S 10.4 mph16.7 kmh 29.03 in983.1 mb 0.00 in0.0 mm 0.00 in0.0 mm 0.00 in0.0 mm
05:08 AM 65.7°F18.7°C 41.6°F5.3°C 42% 5.7 mph S9.2 kmh S 12.0 mph19.3 kmh 29.03 in983.1 mb 0.00 in0.0 mm 0.00 in0.0 mm 0.00 in0.0 mm
05:03 AM 65.7°F18.7°C 40.8°F4.9°C 40% 5.4 mph S8.7 kmh S 12.0 mph19.3 kmh 29.00 in982.1 mb 0.00 in0.0 mm 0.00 in0.0 mm 0.00 in0.0 mm
04:58 AM 65.8°F18.8°C 40.9°F4.9°C 40% 4.7 mph S7.6 kmh S 12.0 mph19.3 kmh 29.00 in982.1 mb 0.00 in0.0 mm 0.00 in0.0 mm 0.00 in0.0 mm
04:53 AM 65.8°F18.8°C 41.0°F5.0°C 41% 4.5 mph S7.2 kmh S 8.7 mph14.0 kmh 29.00 in982.1 mb 0.00 in0.0 mm 0.00 in0.0 mm 0.00 in0.0 mm
04:48 AM 65.8°F18.8°C 41.0°F5.0°C 41% 5.3 mph S8.5 kmh S 9.2 mph14.8 kmh 29.03 in983.1 mb 0.00 in0.0 mm 0.00 in0.0 mm 0.00 in0.0 mm
04:43 AM 66.0°F18.9°C 41.2°F5.1°C 41% 3.8 mph S6.1 kmh S 9.2 mph14.8 kmh 29.03 in983.1 mb 0.00 in0.0 mm 0.00 in0.0 mm 0.00 in0.0 mm
04:38 AM 66.0°F18.9°C 41.2°F5.1°C 41% 4.0 mph S6.4 kmh S 8.7 mph14.0 kmh 29.03 in983.1 mb 0.00 in0.0 mm 0.00 in0.0 mm 0.00 in0.0 mm
04:33 AM 66.2°F19.0°C 41.4°F5.2°C 41% 3.4 mph S5.5 kmh S 11.4 mph18.3 kmh 29.03 in983.1 mb 0.00 in0.0 mm 0.00 in0.0 mm 0.00 in0.0 mm
04:28 AM 66.2°F19.0°C 41.4°F5.2°C 41% 5.4 mph S8.7 kmh S 11.4 mph18.3 kmh 29.03 in983.1 mb 0.00 in0.0 mm 0.00 in0.0 mm 0.00 in0.0 mm
04:23 AM 66.4°F19.1°C 41.6°F5.3°C 41% 3.9 mph SSE6.3 kmh SSE 10.4 mph16.7 kmh 29.03 in983.1 mb 0.00 in0.0 mm 0.00 in0.0 mm 0.00 in0.0 mm
04:18 AM 66.4°F19.1°C 41.6°F5.3°C 41% 5.9 mph S9.5 kmh S 10.4 mph16.7 kmh 29.03 in983.1 mb 0.00 in0.0 mm 0.00 in0.0 mm 0.00 in0.0 mm
04:13 AM 66.2°F19.0°C 41.4°F5.2°C 41% 4.5 mph SSW7.2 kmh SSW 8.7 mph14.0 kmh 29.03 in983.1 mb 0.00 in0.0 mm 0.00 in0.0 mm 0.00 in0.0 mm
04:08 AM 66.2°F19.0°C 41.5°F5.3°C 41% 4.5 mph SW7.2 kmh SW 9.9 mph15.9 kmh 29.03 in983.1 mb 0.00 in0.0 mm 0.00 in0.0 mm 0.00 in0.0 mm
04:02 AM 66.0°F18.9°C 41.3°F5.2°C 41% 3.9 mph SSW6.3 kmh SSW 9.9 mph15.9 kmh 29.03 in983.1 mb 0.00 in0.0 mm 0.00 in0.0 mm 0.00 in0.0 mm
03:57 AM 66.0°F18.9°C 41.3°F5.2°C 41% 3.9 mph SW6.3 kmh SW 8.7 mph14.0 kmh 29.03 in983.1 mb 0.00 in0.0 mm 0.00 in0.0 mm 0.00 in0.0 mm
03:52 AM 65.8°F18.8°C 41.1°F5.1°C 41% 3.4 mph S5.5 kmh S 8.7 mph14.0 kmh 29.03 in983.1 mb 0.00 in0.0 mm 0.00 in0.0 mm 0.00 in0.0 mm
03:47 AM 65.8°F18.8°C 41.2°F5.1°C 41% 2.9 mph SSE4.7 kmh SSE 10.4 mph16.7 kmh 29.03 in983.1 mb 0.00 in0.0 mm 0.00 in0.0 mm 0.00 in0.0 mm
03:42 AM 65.8°F18.8°C 40.4°F4.7°C 40% 4.5 mph S7.2 kmh S 10.4 mph16.7 kmh 29.03 in983.1 mb 0.00 in0.0 mm 0.00 in0.0 mm 0.00 in0.0 mm
03:37 AM 65.8°F18.8°C 40.4°F4.7°C 40% 3.8 mph S6.1 kmh S 8.7 mph14.0 kmh 29.03 in983.1 mb 0.00 in0.0 mm 0.00 in0.0 mm 0.00 in0.0 mm
03:32 AM 66.0°F18.9°C 40.6°F4.8°C 40% 3.5 mph SSE5.6 kmh SSE 9.9 mph15.9 kmh 29.06 in984.1 mb 0.00 in0.0 mm 0.00 in0.0 mm 0.00 in0.0 mm
03:27 AM 66.0°F18.9°C 40.6°F4.8°C 40% 4.7 mph S7.6 kmh S 11.4 mph18.3 kmh 29.06 in984.1 mb 0.00 in0.0 mm 0.00 in0.0 mm 0.00 in0.0 mm
03:21 AM 66.2°F19.0°C 40.8°F4.9°C 40% 5.5 mph S8.9 kmh S 11.4 mph18.3 kmh 29.06 in984.1 mb 0.00 in0.0 mm 0.00 in0.0 mm 0.00 in0.0 mm
03:16 AM 66.2°F19.0°C 40.8°F4.9°C 40% 5.3 mph S8.5 kmh S 14.4 mph23.2 kmh 29.06 in984.1 mb 0.00 in0.0 mm 0.00 in0.0 mm 0.00 in0.0 mm
03:11 AM 66.2°F19.0°C 40.8°F4.9°C 40% 4.6 mph S7.4 kmh S 14.4 mph23.2 kmh 29.06 in984.1 mb 0.00 in0.0 mm 0.00 in0.0 mm 0.00 in0.0 mm
03:06 AM 66.2°F19.0°C 40.9°F4.9°C 40% 5.0 mph S8.0 kmh S 8.7 mph14.0 kmh 29.06 in984.1 mb 0.00 in0.0 mm 0.00 in0.0 mm 0.00 in0.0 mm
03:00 AM 66.2°F19.0°C 40.9°F4.9°C 40% 4.9 mph S7.9 kmh S 11.4 mph18.3 kmh 29.06 in984.1 mb 0.00 in0.0 mm 0.00 in0.0 mm 0.00 in0.0 mm
02:56 AM 66.0°F18.9°C 40.7°F4.8°C 40% 4.4 mph S7.1 kmh S 11.4 mph18.3 kmh 29.06 in984.1 mb 0.00 in0.0 mm 0.00 in0.0 mm 0.00 in0.0 mm
02:51 AM 66.0°F18.9°C 40.7°F4.8°C 40% 5.9 mph S9.5 kmh S 11.1 mph17.9 kmh 29.06 in984.1 mb 0.00 in0.0 mm 0.00 in0.0 mm 0.00 in0.0 mm
02:46 AM 66.0°F18.9°C 40.7°F4.8°C 40% 5.1 mph SSE8.2 kmh SSE 11.4 mph18.3 kmh 29.06 in984.1 mb 0.00 in0.0 mm 0.00 in0.0 mm 0.00 in0.0 mm
02:39 AM 66.0°F18.9°C 40.7°F4.8°C 40% 5.3 mph S8.5 kmh S 11.4 mph18.3 kmh 29.06 in984.1 mb 0.00 in0.0 mm 0.00 in0.0 mm 0.00 in0.0 mm
02:34 AM 66.0°F18.9°C 40.8°F4.9°C 40% 5.2 mph S8.4 kmh S 11.1 mph17.9 kmh 29.06 in984.1 mb 0.00 in0.0 mm 0.00 in0.0 mm 0.00 in0.0 mm
02:28 AM 66.2°F19.0°C 40.2°F4.6°C 39% 5.7 mph S9.2 kmh S 11.1 mph17.9 kmh 29.06 in984.1 mb 0.00 in0.0 mm 0.00 in0.0 mm 0.00 in0.0 mm
02:23 AM 66.4°F19.1°C 40.3°F4.6°C 39% 5.8 mph S9.3 kmh S 11.4 mph18.3 kmh 29.06 in984.1 mb 0.00 in0.0 mm 0.00 in0.0 mm 0.00 in0.0 mm
02:18 AM 66.4°F19.1°C 40.4°F4.7°C 39% 6.4 mph S10.3 kmh S 11.4 mph18.3 kmh 29.06 in984.1 mb 0.00 in0.0 mm 0.00 in0.0 mm 0.00 in0.0 mm
02:13 AM 66.4°F19.1°C 40.4°F4.7°C 39% 5.4 mph S8.7 kmh S 12.0 mph19.3 kmh 29.06 in984.1 mb 0.00 in0.0 mm 0.00 in0.0 mm 0.00 in0.0 mm
02:07 AM 66.6°F19.2°C 40.6°F4.8°C 39% 5.8 mph SSE9.3 kmh SSE 11.4 mph18.3 kmh 29.06 in984.1 mb 0.00 in0.0 mm 0.00 in0.0 mm 0.00 in0.0 mm
02:02 AM 66.6°F19.2°C 40.6°F4.8°C 39% 6.0 mph SSE9.7 kmh SSE 12.0 mph19.3 kmh 29.06 in984.1 mb 0.00 in0.0 mm 0.00 in0.0 mm 0.00 in0.0 mm
01:57 AM 66.7°F19.3°C 40.7°F4.8°C 39% 6.7 mph SSE10.8 kmh SSE 13.9 mph22.4 kmh 29.06 in984.1 mb 0.00 in0.0 mm 0.00 in0.0 mm 0.00 in0.0 mm
01:52 AM 66.7°F19.3°C 40.7°F4.8°C 39% 6.2 mph SSE10.0 kmh SSE 13.9 mph22.4 kmh 29.06 in984.1 mb 0.00 in0.0 mm 0.00 in0.0 mm 0.00 in0.0 mm
01:47 AM 66.9°F19.4°C 41.7°F5.4°C 40% 5.9 mph SSE9.5 kmh SSE 9.9 mph15.9 kmh 29.09 in985.1 mb 0.00 in0.0 mm 0.00 in0.0 mm 0.00 in0.0 mm
01:42 AM 66.9°F19.4°C 41.7°F5.4°C 40% 5.9 mph SSE9.5 kmh SSE 11.4 mph18.3 kmh 29.09 in985.1 mb 0.00 in0.0 mm 0.00 in0.0 mm 0.00 in0.0 mm
01:37 AM 66.9°F19.4°C 41.7°F5.4°C 40% 5.7 mph SSE9.2 kmh SSE 12.6 mph20.3 kmh 29.09 in985.1 mb 0.00 in0.0 mm 0.00 in0.0 mm 0.00 in0.0 mm
01:32 AM 66.7°F19.3°C 41.5°F5.3°C 40% 7.6 mph SSE12.2 kmh SSE 12.6 mph20.3 kmh 29.09 in985.1 mb 0.00 in0.0 mm 0.00 in0.0 mm 0.00 in0.0 mm
01:27 AM 66.6°F19.2°C 41.4°F5.2°C 40% 3.6 mph SE5.8 kmh SE 8.0 mph12.9 kmh 29.09 in985.1 mb 0.00 in0.0 mm 0.00 in0.0 mm 0.00 in0.0 mm
01:22 AM 66.4°F19.1°C 41.2°F5.1°C 40% 4.2 mph SE6.8 kmh SE 8.0 mph12.9 kmh 29.09 in985.1 mb 0.00 in0.0 mm 0.00 in0.0 mm 0.00 in0.0 mm
01:17 AM 66.6°F19.2°C 41.4°F5.2°C 40% 3.8 mph SSE6.1 kmh SSE 9.2 mph14.8 kmh 29.09 in985.1 mb 0.00 in0.0 mm 0.00 in0.0 mm 0.00 in0.0 mm
01:12 AM 66.6°F19.2°C 41.4°F5.2°C 40% 4.4 mph SE7.1 kmh SE 9.2 mph14.8 kmh 29.09 in985.1 mb 0.00 in0.0 mm 0.00 in0.0 mm 0.00 in0.0 mm
01:06 AM 66.4°F19.1°C 41.3°F5.2°C 40% 4.4 mph SE7.1 kmh SE 12.0 mph19.3 kmh 29.09 in985.1 mb 0.00 in0.0 mm 0.00 in0.0 mm 0.00 in0.0 mm
01:01 AM 66.4°F19.1°C 41.3°F5.2°C 40% 6.4 mph SE10.3 kmh SE 12.0 mph19.3 kmh 29.09 in985.1 mb 0.00 in0.0 mm 0.00 in0.0 mm 0.00 in0.0 mm
12:56 AM 66.4°F19.1°C 41.3°F5.2°C 40% 4.7 mph SE7.6 kmh SE 8.7 mph14.0 kmh 29.09 in985.1 mb 0.00 in0.0 mm 0.00 in0.0 mm 0.00 in0.0 mm
12:51 AM 66.2°F19.0°C 41.1°F5.1°C 40% 3.7 mph SE6.0 kmh SE 13.2 mph21.2 kmh 29.09 in985.1 mb 0.00 in0.0 mm 0.00 in0.0 mm 0.00 in0.0 mm
12:44 AM 66.2°F19.0°C 41.1°F5.1°C 40% 5.4 mph SE8.7 kmh SE 13.2 mph21.2 kmh 29.09 in985.1 mb 0.00 in0.0 mm 0.00 in0.0 mm 0.00 in0.0 mm
12:39 AM 66.0°F18.9°C 41.7°F5.4°C 41% 6.3 mph SE10.1 kmh SE 9.2 mph14.8 kmh 29.09 in985.1 mb 0.00 in0.0 mm 0.00 in0.0 mm 0.00 in0.0 mm
12:33 AM 65.8°F18.8°C 41.5°F5.3°C 41% 5.6 mph ESE9.0 kmh ESE 8.7 mph14.0 kmh 29.09 in985.1 mb 0.00 in0.0 mm 0.00 in0.0 mm 0.00 in0.0 mm
12:29 AM 65.8°F18.8°C 41.5°F5.3°C 41% 4.4 mph SE7.1 kmh SE 8.7 mph14.0 kmh 29.09 in985.1 mb 0.00 in0.0 mm 0.00 in0.0 mm 0.00 in0.0 mm
12:24 AM 65.8°F18.8°C 41.5°F5.3°C 41% 5.0 mph ESE8.0 kmh ESE 11.4 mph18.3 kmh 29.09 in985.1 mb 0.00 in0.0 mm 0.00 in0.0 mm 0.00 in0.0 mm
12:19 AM 65.8°F18.8°C 41.5°F5.3°C 41% 5.5 mph SE8.9 kmh SE 11.4 mph18.3 kmh 29.09 in985.1 mb 0.00 in0.0 mm 0.00 in0.0 mm 0.00 in0.0 mm
12:13 AM 65.8°F18.8°C 41.5°F5.3°C 41% 3.4 mph ESE5.5 kmh ESE 8.7 mph14.0 kmh 29.09 in985.1 mb 0.00 in0.0 mm 0.00 in0.0 mm 0.00 in0.0 mm
12:08 AM 65.8°F18.8°C 41.5°F5.3°C 41% 4.8 mph ESE7.7 kmh ESE 8.7 mph14.0 kmh 29.09 in985.1 mb 0.00 in0.0 mm 0.00 in0.0 mm 0.00 in0.0 mm
12:03 AM 65.8°F18.8°C 41.5°F5.3°C 41% 6.1 mph ESE9.8 kmh ESE 8.7 mph14.0 kmh 29.09 in985.1 mb 0.00 in0.0 mm 0.00 in0.0 mm 0.00 in0.0 mm